Wilson Clyde — 8PRV — position and weather

sailwx.info

Track history (hours):
 
Tides and Currents Weather Stations Pressure Air Temp Water Temp Dewpoint Dewpoint Depression Visibility Wind Speed Wind Dir Waves Ship Positions

Wilson Clyde

Last reported at 2014-Aug-18 03:33 UTC. Time now 2014-Aug-20 12:41 UTC.
Position N 63°27' E 010°10'.

Length 100 m; draft 4.6 m.

Type: Ship. MMSI: 314187000.

Date/timePositionNaut miles runAvg speedWind from/ knotsBaromVisibWave heightAir tempDewpointWater temp
2014-Aug-18 03:33N 63°27' E 010°10'5 5.3
2014-Aug-18 02:31N 63°26' E 010°22'0 0.0
2014-Aug-18 01:31N 63°26' E 010°22'0 0.0
2014-Aug-18 00:28N 63°26' E 010°22'0 0.0
2014-Aug-17 18:31N 63°26' E 010°22'0 0.0
2014-Aug-17 17:31N 63°26' E 010°22'0 0.0
2014-Aug-17 16:28N 63°26' E 010°22'0 0.0
2014-Aug-17 15:31N 63°26' E 010°22'0 0.0
2014-Aug-17 14:31N 63°26' E 010°22'0 0.0
2014-Aug-17 13:31N 63°26' E 010°22'0 0.0
2014-Aug-17 12:31N 63°26' E 010°22'0 0.0
2014-Aug-17 11:31N 63°26' E 010°22'0 0.0
2014-Aug-17 10:31N 63°26' E 010°22'0 0.0
2014-Aug-17 09:31N 63°26' E 010°22'0 0.0
2014-Aug-17 08:31N 63°26' E 010°22'0 0.0
2014-Aug-17 07:31N 63°26' E 010°22'0 0.0
2014-Aug-17 06:31N 63°26' E 010°22'0 0.0
2014-Aug-17 05:31N 63°26' E 010°22'0 0.1
2014-Aug-17 04:31N 63°26' E 010°23'0 0.0
2014-Aug-17 03:31N 63°26' E 010°23'0 0.0
2014-Aug-17 02:31N 63°26' E 010°23'2 2.1
2014-Aug-17 01:33N 63°28' E 010°19'313 8.2
2014-Aug-15 11:33N 58°54' E 005°04'9 9.0
2014-Aug-15 10:33N 58°47' E 005°14'9 9.4
2014-Aug-15 09:33N 58°39' E 005°23'11 9.6
2014-Aug-15 08:22N 58°29' E 005°35'8 9.9
2014-Aug-15 07:33N 58°23' E 005°46'1110.5
2014-Aug-15 06:33N 58°16' E 006°01'1212.0
2014-Aug-15 05:33N 58°08' E 006°17'13211.0
2014-Aug-14 17:33N 57°49' E 010°24'1010.4
2014-Aug-14 16:33N 57°48' E 010°43'8 7.5
2014-Aug-14 15:33N 57°41' E 010°40'3 1.9
2014-Aug-14 14:15N 57°40' E 010°36'0 0.0
2014-Aug-14 13:30N 57°40' E 010°36'0 0.0
2014-Aug-14 12:33N 57°40' E 010°36'0 0.0
2014-Aug-14 09:33N 57°40' E 010°36'0 0.0
2014-Aug-14 08:33N 57°40' E 010°36'0 0.3
2014-Aug-14 07:33N 57°40' E 010°36'10 9.7
2014-Aug-14 06:33N 57°36' E 010°53'1111.3
2014-Aug-14 05:33N 57°32' E 011°12'1010.4
2014-Aug-14 04:33N 57°26' E 011°27'1111.2
2014-Aug-14 03:33N 57°15' E 011°35'1211.5
2014-Aug-14 02:33N 57°04' E 011°42'1211.9
2014-Aug-14 01:33N 56°53' E 011°50'1211.6
2014-Aug-14 00:33N 56°43' E 012°01'1211.7
2014-Aug-13 23:33N 56°33' E 012°12'1211.7
2014-Aug-13 22:33N 56°22' E 012°20'1211.8
2014-Aug-13 21:33N 56°12' E 012°29'1111.5
2014-Aug-13 20:33N 56°02' E 012°40'1211.6
2014-Aug-13 19:33N 55°51' E 012°44'1211.9
2014-Aug-13 18:33N 55°39' E 012°42'1212.3
2014-Aug-13 17:33N 55°27' E 012°42'1010.5
2014-Aug-13 16:33N 55°17' E 012°49'1211.9
2014-Aug-13 15:33N 55°13' E 013°08'21 9.7
2014-Aug-13 13:23N 54°55' E 013°28'910.9
2014-Aug-13 12:33N 54°47' E 013°34'1211.8
2014-Aug-13 11:33N 54°36' E 013°44'1211.6
2014-Aug-13 10:33N 54°26' E 013°53'1111.4
2014-Aug-13 09:33N 54°17' E 014°06'1110.7
2014-Aug-13 08:33N 54°07' E 014°14'1111.1
2014-Aug-13 07:33N 53°57' E 014°17'7 6.7
2014-Aug-13 06:33N 53°50' E 014°18'1110.9
2014-Aug-13 05:33N 53°41' E 014°30'1010.2
2014-Aug-13 04:33N 53°32' E 014°38'4 3.6
2014-Aug-13 03:33N 53°29' E 014°37'0 0.0
2014-Aug-13 02:33N 53°29' E 014°37'0 0.0
2014-Aug-13 01:33N 53°29' E 014°37'0 0.0
2014-Aug-13 00:33N 53°29' E 014°37'0 0.0
2014-Aug-12 23:33N 53°29' E 014°37'0 0.0
2014-Aug-12 22:33N 53°29' E 014°37'0 0.0
2014-Aug-12 21:33N 53°29' E 014°37'0 0.0
2014-Aug-12 20:33N 53°29' E 014°37'0 0.0
2014-Aug-12 19:33N 53°29' E 014°37'0 0.0
2014-Aug-12 18:33N 53°29' E 014°37'0 0.0
2014-Aug-12 17:33N 53°29' E 014°37'0 0.0
2014-Aug-12 16:33N 53°29' E 014°37'0 0.0
2014-Aug-12 15:33N 53°29' E 014°37'0 0.0
2014-Aug-12 14:33N 53°29' E 014°37'0 0.0
2014-Aug-12 13:33N 53°29' E 014°37'0 0.0
2014-Aug-12 12:33N 53°29' E 014°37'0 0.0
2014-Aug-12 11:33N 53°29' E 014°37'0 0.0
2014-Aug-12 10:33N 53°29' E 014°37'0 0.0
2014-Aug-12 09:33N 53°29' E 014°37'0 0.0
2014-Aug-12 08:33N 53°29' E 014°37'0 0.0
2014-Aug-12 07:33N 53°29' E 014°37'0 0.0
2014-Aug-12 06:33N 53°29' E 014°37'0 0.0
2014-Aug-12 05:33N 53°29' E 014°37'0 0.0
2014-Aug-12 04:33N 53°29' E 014°37'0 0.0
2014-Aug-12 03:33N 53°29' E 014°37'0 0.0
2014-Aug-12 02:33N 53°29' E 014°37'0 0.0
2014-Aug-12 01:33N 53°29' E 014°37'0 0.0
2014-Aug-12 00:33N 53°29' E 014°37'0 0.0
2014-Aug-11 23:33N 53°29' E 014°37'0 0.0
2014-Aug-11 22:33N 53°29' E 014°37'0 0.0
2014-Aug-11 21:33N 53°29' E 014°37'1 1.0
2014-Aug-11 20:33N 53°30' E 014°37'8 8.4
2014-Aug-11 19:33N 53°38' E 014°35'1111.3
2014-Aug-11 18:33N 53°47' E 014°23'8 7.7
2014-Aug-11 17:33N 53°53' E 014°16'5 4.8
2014-Aug-11 16:32N 53°58' E 014°19'0 0.1
2014-Aug-11 15:32N 53°58' E 014°19'0 0.0
2014-Aug-11 14:32N 53°58' E 014°19'0 0.0
2014-Aug-11 13:32N 53°58' E 014°19'0 0.0
2014-Aug-11 12:32N 53°58' E 014°19'0 0.0
2014-Aug-11 11:32N 53°58' E 014°19'0 0.0
2014-Aug-11 10:32N 53°58' E 014°19'0 0.0
2014-Aug-11 09:32N 53°58' E 014°19'0 0.0
2014-Aug-11 08:32N 53°58' E 014°19'0 0.0
2014-Aug-11 07:32N 53°58' E 014°19'0 0.0
2014-Aug-11 06:32N 53°58' E 014°19'0 0.0
2014-Aug-11 05:32N 53°58' E 014°19'0 0.0
2014-Aug-11 04:32N 53°58' E 014°19'0 0.0
2014-Aug-11 03:32N 53°58' E 014°19'0 0.0
2014-Aug-11 02:32N 53°58' E 014°19'0 0.0
2014-Aug-11 01:32N 53°58' E 014°19'0 0.0
2014-Aug-11 00:32N 53°58' E 014°19'0 0.1
2014-Aug-10 23:32N 53°58' E 014°19'0 0.0
2014-Aug-10 22:32N 53°58' E 014°19'0 0.1
2014-Aug-10 21:32N 53°58' E 014°19'0 0.1
2014-Aug-10 20:32N 53°58' E 014°19'0 0.0
2014-Aug-10 19:32N 53°58' E 014°19'0 0.0
2014-Aug-10 18:32N 53°58' E 014°19'0 0.0
2014-Aug-10 17:32N 53°58' E 014°19'0 0.0
2014-Aug-10 16:32N 53°58' E 014°19'0 0.0
2014-Aug-10 15:32N 53°58' E 014°19'0 0.0
2014-Aug-10 14:32N 53°58' E 014°19'0 0.1
2014-Aug-10 13:32N 53°58' E 014°19'0 0.0
2014-Aug-10 12:32N 53°58' E 014°19'0 0.0
2014-Aug-10 11:32N 53°58' E 014°19'0 0.0
2014-Aug-10 10:29N 53°58' E 014°19'0 0.0
2014-Aug-10 09:32N 53°58' E 014°19'0 0.0
2014-Aug-10 08:32N 53°58' E 014°19'0 0.0
2014-Aug-10 07:32N 53°58' E 014°19'0 0.0
2014-Aug-10 06:32N 53°58' E 014°19'0 0.0
2014-Aug-10 05:32N 53°58' E 014°19'0 0.0
2014-Aug-10 04:32N 53°58' E 014°19'0 0.0
2014-Aug-10 03:32N 53°58' E 014°19'0 0.1
2014-Aug-10 02:32N 53°58' E 014°19'0 0.0
2014-Aug-10 01:29N 53°58' E 014°19'0 0.0
2014-Aug-10 00:32N 53°58' E 014°19'0 0.0
2014-Aug-09 23:32N 53°58' E 014°19'0 0.0
2014-Aug-09 22:32N 53°58' E 014°19'0 0.0
2014-Aug-09 21:32N 53°58' E 014°19'0 0.0
2014-Aug-09 20:32N 53°58' E 014°19'0 0.0
2014-Aug-09 19:32N 53°58' E 014°19'0 0.0
2014-Aug-09 18:32N 53°58' E 014°19'0 0.0
2014-Aug-09 17:32N 53°58' E 014°19'0 0.0
2014-Aug-09 16:32N 53°58' E 014°19'0 0.1
2014-Aug-09 15:32N 53°58' E 014°19'0 0.0
2014-Aug-09 14:32N 53°58' E 014°19'0 0.0
2014-Aug-09 13:32N 53°58' E 014°19'0 0.1
2014-Aug-09 12:32N 53°58' E 014°19'0 0.0
2014-Aug-09 11:32N 53°58' E 014°19'0 0.0
2014-Aug-09 10:32N 53°58' E 014°19'0 0.0
2014-Aug-09 09:32N 53°58' E 014°19'0 0.0
2014-Aug-09 08:32N 53°58' E 014°19'0 0.0
2014-Aug-09 07:32N 53°58' E 014°19'0 0.0
2014-Aug-09 06:32N 53°58' E 014°19'0 0.0
2014-Aug-09 05:32N 53°58' E 014°19'0 0.0
2014-Aug-09 04:32N 53°58' E 014°19'0 0.0
2014-Aug-09 03:32N 53°58' E 014°19'0 0.0
2014-Aug-09 02:32N 53°58' E 014°19'0 0.0
2014-Aug-09 01:32N 53°58' E 014°19'0 0.0
2014-Aug-09 00:32N 53°58' E 014°19'0 0.0
2014-Aug-08 23:32N 53°58' E 014°19'0 0.1
2014-Aug-08 22:32N 53°58' E 014°19'0 0.0
2014-Aug-08 21:32N 53°58' E 014°19'0 0.0
2014-Aug-08 20:32N 53°58' E 014°19'0 0.0
2014-Aug-08 19:32N 53°58' E 014°19'0 0.0
2014-Aug-08 18:32N 53°58' E 014°19'0 0.0
2014-Aug-08 17:32N 53°58' E 014°19'0 0.0
2014-Aug-08 16:32N 53°58' E 014°19'0 0.0
2014-Aug-08 15:32N 53°58' E 014°19'0 0.0
2014-Aug-08 14:32N 53°58' E 014°19'0 0.0
2014-Aug-08 13:32N 53°58' E 014°19'0 0.0
2014-Aug-08 12:32N 53°58' E 014°19'0 0.0
2014-Aug-08 11:32N 53°58' E 014°19'0 0.0
2014-Aug-08 10:32N 53°58' E 014°19'0 0.0
2014-Aug-08 09:32N 53°58' E 014°19'0 0.0
2014-Aug-08 08:32N 53°58' E 014°19'0 0.0
2014-Aug-08 07:32N 53°58' E 014°19'0 0.0
2014-Aug-08 06:32N 53°58' E 014°19'0 0.0
2014-Aug-08 05:32N 53°58' E 014°19'0 0.0
2014-Aug-08 04:32N 53°58' E 014°19'  
Track history (hours):
 
Tides and Currents Weather Stations Pressure Air Temp Water Temp Dewpoint Dewpoint Depression Visibility Wind Speed Wind Dir Waves Ship Positions

Wilson Clyde

Last reported at 2014-Aug-18 03:33 UTC. Time now 2014-Aug-20 12:41 UTC.
Position N 63°27' E 010°10'.

Length 100 m; draft 4.6 m.

Type: Ship. MMSI: 314187000.

Date/timePositionNaut miles runAvg speedWind from/ knotsBaromVisibWave heightAir tempDewpointWater temp
2014-Aug-18 03:33N 63°27' E 010°10'5 5.3
2014-Aug-18 02:31N 63°26' E 010°22'0 0.0
2014-Aug-18 01:31N 63°26' E 010°22'0 0.0
2014-Aug-18 00:28N 63°26' E 010°22'0 0.0
2014-Aug-17 18:31N 63°26' E 010°22'0 0.0
2014-Aug-17 17:31N 63°26' E 010°22'0 0.0
2014-Aug-17 16:28N 63°26' E 010°22'0 0.0
2014-Aug-17 15:31N 63°26' E 010°22'0 0.0
2014-Aug-17 14:31N 63°26' E 010°22'0 0.0
2014-Aug-17 13:31N 63°26' E 010°22'0 0.0
2014-Aug-17 12:31N 63°26' E 010°22'0 0.0
2014-Aug-17 11:31N 63°26' E 010°22'0 0.0
2014-Aug-17 10:31N 63°26' E 010°22'0 0.0
2014-Aug-17 09:31N 63°26' E 010°22'0 0.0
2014-Aug-17 08:31N 63°26' E 010°22'0 0.0
2014-Aug-17 07:31N 63°26' E 010°22'0 0.0
2014-Aug-17 06:31N 63°26' E 010°22'0 0.0
2014-Aug-17 05:31N 63°26' E 010°22'0 0.1
2014-Aug-17 04:31N 63°26' E 010°23'0 0.0
2014-Aug-17 03:31N 63°26' E 010°23'0 0.0
2014-Aug-17 02:31N 63°26' E 010°23'2 2.1
2014-Aug-17 01:33N 63°28' E 010°19'313 8.2
2014-Aug-15 11:33N 58°54' E 005°04'9 9.0
2014-Aug-15 10:33N 58°47' E 005°14'9 9.4
2014-Aug-15 09:33N 58°39' E 005°23'11 9.6
2014-Aug-15 08:22N 58°29' E 005°35'8 9.9
2014-Aug-15 07:33N 58°23' E 005°46'1110.5
2014-Aug-15 06:33N 58°16' E 006°01'1212.0
2014-Aug-15 05:33N 58°08' E 006°17'13211.0
2014-Aug-14 17:33N 57°49' E 010°24'1010.4
2014-Aug-14 16:33N 57°48' E 010°43'8 7.5
2014-Aug-14 15:33N 57°41' E 010°40'3 1.9
2014-Aug-14 14:15N 57°40' E 010°36'0 0.0
2014-Aug-14 13:30N 57°40' E 010°36'0 0.0
2014-Aug-14 12:33N 57°40' E 010°36'0 0.0
2014-Aug-14 09:33N 57°40' E 010°36'0 0.0
2014-Aug-14 08:33N 57°40' E 010°36'0 0.3
2014-Aug-14 07:33N 57°40' E 010°36'10 9.7
2014-Aug-14 06:33N 57°36' E 010°53'1111.3
2014-Aug-14 05:33N 57°32' E 011°12'1010.4
2014-Aug-14 04:33N 57°26' E 011°27'1111.2
2014-Aug-14 03:33N 57°15' E 011°35'1211.5
2014-Aug-14 02:33N 57°04' E 011°42'1211.9
2014-Aug-14 01:33N 56°53' E 011°50'1211.6
2014-Aug-14 00:33N 56°43' E 012°01'1211.7
2014-Aug-13 23:33N 56°33' E 012°12'1211.7
2014-Aug-13 22:33N 56°22' E 012°20'1211.8
2014-Aug-13 21:33N 56°12' E 012°29'1111.5
2014-Aug-13 20:33N 56°02' E 012°40'1211.6
2014-Aug-13 19:33N 55°51' E 012°44'1211.9
2014-Aug-13 18:33N 55°39' E 012°42'1212.3
2014-Aug-13 17:33N 55°27' E 012°42'1010.5
2014-Aug-13 16:33N 55°17' E 012°49'1211.9
2014-Aug-13 15:33N 55°13' E 013°08'21 9.7
2014-Aug-13 13:23N 54°55' E 013°28'910.9
2014-Aug-13 12:33N 54°47' E 013°34'1211.8
2014-Aug-13 11:33N 54°36' E 013°44'1211.6
2014-Aug-13 10:33N 54°26' E 013°53'1111.4
2014-Aug-13 09:33N 54°17' E 014°06'1110.7
2014-Aug-13 08:33N 54°07' E 014°14'1111.1
2014-Aug-13 07:33N 53°57' E 014°17'7 6.7
2014-Aug-13 06:33N 53°50' E 014°18'1110.9
2014-Aug-13 05:33N 53°41' E 014°30'1010.2
2014-Aug-13 04:33N 53°32' E 014°38'4 3.6
2014-Aug-13 03:33N 53°29' E 014°37'0 0.0
2014-Aug-13 02:33N 53°29' E 014°37'0 0.0
2014-Aug-13 01:33N 53°29' E 014°37'0 0.0
2014-Aug-13 00:33N 53°29' E 014°37'0 0.0
2014-Aug-12 23:33N 53°29' E 014°37'0 0.0
2014-Aug-12 22:33N 53°29' E 014°37'0 0.0
2014-Aug-12 21:33N 53°29' E 014°37'0 0.0
2014-Aug-12 20:33N 53°29' E 014°37'0 0.0
2014-Aug-12 19:33N 53°29' E 014°37'0 0.0
2014-Aug-12 18:33N 53°29' E 014°37'0 0.0
2014-Aug-12 17:33N 53°29' E 014°37'0 0.0
2014-Aug-12 16:33N 53°29' E 014°37'0 0.0
2014-Aug-12 15:33N 53°29' E 014°37'0 0.0
2014-Aug-12 14:33N 53°29' E 014°37'0 0.0
2014-Aug-12 13:33N 53°29' E 014°37'0 0.0
2014-Aug-12 12:33N 53°29' E 014°37'0 0.0
2014-Aug-12 11:33N 53°29' E 014°37'0 0.0
2014-Aug-12 10:33N 53°29' E 014°37'0 0.0
2014-Aug-12 09:33N 53°29' E 014°37'0 0.0
2014-Aug-12 08:33N 53°29' E 014°37'0 0.0
2014-Aug-12 07:33N 53°29' E 014°37'0 0.0
2014-Aug-12 06:33N 53°29' E 014°37'0 0.0
2014-Aug-12 05:33N 53°29' E 014°37'0 0.0
2014-Aug-12 04:33N 53°29' E 014°37'0 0.0
2014-Aug-12 03:33N 53°29' E 014°37'0 0.0
2014-Aug-12 02:33N 53°29' E 014°37'0 0.0
2014-Aug-12 01:33N 53°29' E 014°37'0 0.0
2014-Aug-12 00:33N 53°29' E 014°37'0 0.0
2014-Aug-11 23:33N 53°29' E 014°37'0 0.0
2014-Aug-11 22:33N 53°29' E 014°37'0 0.0
2014-Aug-11 21:33N 53°29' E 014°37'1 1.0
2014-Aug-11 20:33N 53°30' E 014°37'8 8.4
2014-Aug-11 19:33N 53°38' E 014°35'1111.3
2014-Aug-11 18:33N 53°47' E 014°23'8 7.7
2014-Aug-11 17:33N 53°53' E 014°16'5 4.8
2014-Aug-11 16:32N 53°58' E 014°19'0 0.1
2014-Aug-11 15:32N 53°58' E 014°19'0 0.0
2014-Aug-11 14:32N 53°58' E 014°19'0 0.0
2014-Aug-11 13:32N 53°58' E 014°19'0 0.0
2014-Aug-11 12:32N 53°58' E 014°19'0 0.0
2014-Aug-11 11:32N 53°58' E 014°19'0 0.0
2014-Aug-11 10:32N 53°58' E 014°19'0 0.0
2014-Aug-11 09:32N 53°58' E 014°19'0 0.0
2014-Aug-11 08:32N 53°58' E 014°19'0 0.0
2014-Aug-11 07:32N 53°58' E 014°19'0 0.0
2014-Aug-11 06:32N 53°58' E 014°19'0 0.0
2014-Aug-11 05:32N 53°58' E 014°19'0 0.0
2014-Aug-11 04:32N 53°58' E 014°19'0 0.0
2014-Aug-11 03:32N 53°58' E 014°19'0 0.0
2014-Aug-11 02:32N 53°58' E 014°19'0 0.0
2014-Aug-11 01:32N 53°58' E 014°19'0 0.0
2014-Aug-11 00:32N 53°58' E 014°19'0 0.1
2014-Aug-10 23:32N 53°58' E 014°19'0 0.0
2014-Aug-10 22:32N 53°58' E 014°19'0 0.1
2014-Aug-10 21:32N 53°58' E 014°19'0 0.1
2014-Aug-10 20:32N 53°58' E 014°19'0 0.0
2014-Aug-10 19:32N 53°58' E 014°19'0 0.0
2014-Aug-10 18:32N 53°58' E 014°19'0 0.0
2014-Aug-10 17:32N 53°58' E 014°19'0 0.0
2014-Aug-10 16:32N 53°58' E 014°19'0 0.0
2014-Aug-10 15:32N 53°58' E 014°19'0 0.0
2014-Aug-10 14:32N 53°58' E 014°19'0 0.1
2014-Aug-10 13:32N 53°58' E 014°19'0 0.0
2014-Aug-10 12:32N 53°58' E 014°19'0 0.0
2014-Aug-10 11:32N 53°58' E 014°19'0 0.0
2014-Aug-10 10:29N 53°58' E 014°19'0 0.0
2014-Aug-10 09:32N 53°58' E 014°19'0 0.0
2014-Aug-10 08:32N 53°58' E 014°19'0 0.0
2014-Aug-10 07:32N 53°58' E 014°19'0 0.0
2014-Aug-10 06:32N 53°58' E 014°19'0 0.0
2014-Aug-10 05:32N 53°58' E 014°19'0 0.0
2014-Aug-10 04:32N 53°58' E 014°19'0 0.0
2014-Aug-10 03:32N 53°58' E 014°19'0 0.1
2014-Aug-10 02:32N 53°58' E 014°19'0 0.0
2014-Aug-10 01:29N 53°58' E 014°19'0 0.0
2014-Aug-10 00:32N 53°58' E 014°19'0 0.0
2014-Aug-09 23:32N 53°58' E 014°19'0 0.0
2014-Aug-09 22:32N 53°58' E 014°19'0 0.0
2014-Aug-09 21:32N 53°58' E 014°19'0 0.0
2014-Aug-09 20:32N 53°58' E 014°19'0 0.0
2014-Aug-09 19:32N 53°58' E 014°19'0 0.0
2014-Aug-09 18:32N 53°58' E 014°19'0 0.0
2014-Aug-09 17:32N 53°58' E 014°19'0 0.0
2014-Aug-09 16:32N 53°58' E 014°19'0 0.1
2014-Aug-09 15:32N 53°58' E 014°19'0 0.0
2014-Aug-09 14:32N 53°58' E 014°19'0 0.0
2014-Aug-09 13:32N 53°58' E 014°19'0 0.1
2014-Aug-09 12:32N 53°58' E 014°19'0 0.0
2014-Aug-09 11:32N 53°58' E 014°19'0 0.0
2014-Aug-09 10:32N 53°58' E 014°19'0 0.0
2014-Aug-09 09:32N 53°58' E 014°19'0 0.0
2014-Aug-09 08:32N 53°58' E 014°19'0 0.0
2014-Aug-09 07:32N 53°58' E 014°19'0 0.0
2014-Aug-09 06:32N 53°58' E 014°19'0 0.0
2014-Aug-09 05:32N 53°58' E 014°19'0 0.0
2014-Aug-09 04:32N 53°58' E 014°19'0 0.0
2014-Aug-09 03:32N 53°58' E 014°19'0 0.0
2014-Aug-09 02:32N 53°58' E 014°19'0 0.0
2014-Aug-09 01:32N 53°58' E 014°19'0 0.0
2014-Aug-09 00:32N 53°58' E 014°19'0 0.0
2014-Aug-08 23:32N 53°58' E 014°19'0 0.1
2014-Aug-08 22:32N 53°58' E 014°19'0 0.0
2014-Aug-08 21:32N 53°58' E 014°19'0 0.0
2014-Aug-08 20:32N 53°58' E 014°19'0 0.0
2014-Aug-08 19:32N 53°58' E 014°19'0 0.0
2014-Aug-08 18:32N 53°58' E 014°19'0 0.0
2014-Aug-08 17:32N 53°58' E 014°19'0 0.0
2014-Aug-08 16:32N 53°58' E 014°19'0 0.0
2014-Aug-08 15:32N 53°58' E 014°19'0 0.0
2014-Aug-08 14:32N 53°58' E 014°19'0 0.0
2014-Aug-08 13:32N 53°58' E 014°19'0 0.0
2014-Aug-08 12:32N 53°58' E 014°19'0 0.0
2014-Aug-08 11:32N 53°58' E 014°19'0 0.0
2014-Aug-08 10:32N 53°58' E 014°19'0 0.0
2014-Aug-08 09:32N 53°58' E 014°19'0 0.0
2014-Aug-08 08:32N 53°58' E 014°19'0 0.0
2014-Aug-08 07:32N 53°58' E 014°19'0 0.0
2014-Aug-08 06:32N 53°58' E 014°19'0 0.0
2014-Aug-08 05:32N 53°58' E 014°19'0 0.0
2014-Aug-08 04:32N 53°58' E 014°19'  

Dump ship's entire track history